Fort Loudon, Pennsylvania
Current Conditions -  °F | °C
As of 7:53 PM on Monday 24 Nov 2014 (Local Time) from KHGR Reporting Station
Clear Clear  
Wind Chill: 65°   Ceiling: Unl
Heat Index: 65°   Visibility: 10mi
Dew Point: 50°   Wind: 10mph
Humidity: 58%   Direction: 200°SSW
Pressure: 29.66"   Gusts: NA
Location:  39.91°N, 77.9°W
Report Text: KHGR 250053Z 20009KT 10SM CLR 18/10 A2966 RMK AO2 SLP051 T01830100
Loading
Personal Weather Stations






























Interactive Weather Map New forecast layout! Learn more

10-Day Weather Forecast

Advertisements
Track Severe Weather on mobile